createdAt,value
2022-11-18T00:01:07.923Z,2.50
2022-11-18T00:03:34.814Z,2.60
2022-11-18T00:06:01.285Z,2.57
2022-11-18T00:08:28.145Z,2.40
2022-11-18T00:10:54.734Z,2.67
2022-11-18T00:13:50.380Z,2.43
2022-11-18T00:16:16.859Z,2.40
2022-11-18T00:18:43.324Z,2.33
2022-11-18T00:21:11.551Z,2.57
2022-11-18T00:23:39.365Z,3.23
2022-11-18T00:26:08.681Z,2.43
2022-11-18T00:28:35.482Z,2.33
2022-11-18T00:31:04.044Z,2.60
2022-11-18T00:33:31.324Z,2.87
2022-11-18T00:35:58.355Z,2.50
2022-11-18T00:38:26.126Z,2.30
2022-11-18T00:41:00.678Z,2.70
2022-11-18T00:43:27.139Z,2.40
2022-11-18T00:45:53.847Z,2.60
2022-11-18T00:48:21.927Z,2.63
2022-11-18T00:50:52.980Z,2.30
2022-11-18T00:53:20.859Z,2.90
2022-11-18T00:55:47.823Z,2.40
2022-11-18T00:58:14.467Z,2.37
2022-11-18T01:00:50.592Z,2.87
2022-11-18T01:03:17.332Z,2.60
2022-11-18T01:05:43.855Z,2.27
2022-11-18T01:08:12.013Z,3.13
2022-11-18T01:10:40.335Z,2.27
2022-11-18T01:13:20.898Z,2.40
2022-11-18T01:15:49.341Z,2.53
2022-11-18T01:18:17.718Z,2.60
2022-11-18T01:20:45.143Z,2.60
2022-11-18T01:23:12.729Z,2.30
2022-11-18T01:25:41.280Z,2.50
2022-11-18T01:28:07.858Z,2.40
2022-11-18T01:30:35.967Z,2.70
2022-11-18T01:33:04.362Z,2.37
2022-11-18T01:35:42.704Z,1.97
2022-11-18T01:38:11.664Z,2.00
2022-11-18T01:40:38.423Z,3.00
2022-11-18T01:43:17.378Z,2.07
2022-11-18T01:45:45.732Z,2.50
2022-11-18T01:48:20.735Z,2.50
2022-11-18T01:50:52.103Z,2.50
2022-11-18T01:53:25.706Z,2.40
2022-11-18T01:55:56.127Z,2.10
2022-11-18T01:58:25.005Z,2.57
2022-11-18T02:00:51.813Z,2.47
2022-11-18T02:03:18.759Z,2.10
2022-11-18T02:05:47.992Z,2.40
2022-11-18T02:08:16.737Z,3.27
2022-11-18T02:10:43.331Z,2.80
2022-11-18T02:13:09.960Z,2.30
2022-11-18T02:15:45.279Z,2.70
2022-11-18T02:18:34.766Z,3.00
2022-11-18T02:21:29.183Z,2.30
2022-11-18T02:24:04.782Z,2.40
2022-11-18T02:26:51.487Z,2.60
2022-11-18T02:29:26.583Z,2.10
2022-11-18T02:32:06.368Z,2.13
2022-11-18T02:35:05.176Z,2.00
2022-11-18T02:37:40.490Z,2.20
2022-11-18T02:40:10.251Z,2.40
2022-11-18T02:42:39.272Z,2.47
2022-11-18T02:45:09.307Z,2.07
2022-11-18T02:47:37.375Z,3.40
2022-11-18T02:50:09.106Z,2.20
2022-11-18T02:52:38.988Z,2.40
2022-11-18T02:55:09.026Z,2.30
2022-11-18T02:57:36.972Z,2.30
2022-11-18T03:00:04.695Z,2.30
2022-11-18T03:02:42.908Z,2.10
2022-11-18T03:05:18.287Z,2.30
2022-11-18T03:07:50.468Z,2.40
2022-11-18T03:10:19.281Z,2.27
2022-11-18T03:12:56.005Z,2.40
2022-11-18T03:15:40.882Z,2.07
2022-11-18T03:18:26.581Z,3.10
2022-11-18T03:20:58.700Z,2.50
2022-11-18T03:23:41.481Z,2.10
2022-11-18T03:26:16.443Z,2.40
2022-11-18T03:29:05.039Z,2.23
2022-11-18T03:31:43.074Z,2.17
2022-11-18T03:34:42.119Z,2.20
2022-11-18T03:37:12.560Z,2.00
2022-11-18T03:39:44.344Z,2.27
2022-11-18T03:42:19.839Z,2.17
2022-11-18T03:44:59.070Z,2.57
2022-11-18T03:47:31.948Z,3.00
2022-11-18T03:50:05.724Z,2.57
2022-11-18T03:52:36.723Z,2.40
2022-11-18T03:55:12.349Z,2.70
2022-11-18T03:57:47.271Z,2.30
2022-11-18T04:00:16.147Z,2.50
2022-11-18T04:02:43.562Z,2.30
2022-11-18T04:05:13.073Z,2.50
2022-11-18T04:07:53.970Z,2.40
2022-11-18T04:10:22.073Z,3.20
2022-11-18T04:13:01.869Z,2.50
2022-11-18T04:15:33.295Z,2.30
2022-11-18T04:17:59.921Z,2.53
2022-11-18T04:20:27.067Z,3.17
2022-11-18T04:22:53.487Z,2.77
2022-11-18T04:25:21.060Z,2.17
2022-11-18T04:27:47.505Z,2.30
2022-11-18T04:30:13.955Z,2.40
2022-11-18T04:32:40.427Z,2.57
2022-11-18T04:35:07.019Z,2.70
2022-11-18T04:37:35.908Z,2.60
2022-11-18T04:40:03.248Z,2.67
2022-11-18T04:42:29.715Z,2.60
2022-11-18T04:44:56.218Z,3.10
2022-11-18T04:47:22.750Z,2.90
2022-11-18T04:49:49.441Z,2.93
2022-11-18T04:52:16.407Z,2.70
2022-11-18T04:54:43.140Z,3.00
2022-11-18T04:57:09.648Z,3.10
2022-11-18T04:59:36.544Z,2.90
2022-11-18T05:02:03.656Z,3.43
2022-11-18T05:04:32.599Z,2.47
2022-11-18T05:07:00.926Z,2.70
2022-11-18T05:09:31.772Z,3.00
2022-11-18T05:12:17.684Z,2.90
2022-11-18T05:14:49.562Z,3.27
2022-11-18T05:17:17.694Z,3.10
2022-11-18T05:19:44.166Z,3.40
2022-11-18T05:22:10.617Z,2.80
2022-11-18T05:24:37.018Z,3.53
2022-11-18T05:27:03.665Z,2.77
2022-11-18T05:29:30.171Z,3.00
2022-11-18T05:31:56.635Z,2.53
2022-11-18T05:34:23.153Z,3.47
2022-11-18T05:36:49.734Z,3.40
2022-11-18T05:39:16.694Z,2.97
2022-11-18T05:42:01.787Z,4.83
2022-11-18T05:44:28.293Z,34.23
2022-11-18T05:46:55.209Z,5.03
2022-11-18T05:49:21.725Z,3.57
2022-11-18T05:51:48.215Z,3.77
2022-11-18T05:54:17.990Z,3.00
2022-11-18T05:56:45.207Z,2.97
2022-11-18T05:59:12.419Z,3.80
2022-11-18T06:02:01.614Z,3.73
2022-11-18T06:04:31.148Z,3.10
2022-11-18T06:07:05.821Z,3.70
2022-11-18T06:09:36.864Z,3.03
2022-11-18T06:12:05.384Z,3.20
2022-11-18T06:14:42.118Z,3.60
2022-11-18T06:17:35.669Z,4.07
2022-11-18T06:20:04.309Z,3.20
2022-11-18T06:22:31.048Z,3.50
2022-11-18T06:24:57.562Z,3.40
2022-11-18T06:27:24.020Z,3.43
2022-11-18T06:29:50.449Z,3.50
2022-11-18T06:32:16.904Z,3.33
2022-11-18T06:34:43.339Z,3.20
2022-11-18T06:37:14.071Z,3.40
2022-11-18T06:39:40.496Z,3.30
2022-11-18T06:42:07.059Z,3.73
2022-11-18T06:44:33.641Z,4.00
2022-11-18T06:47:01.450Z,3.50
2022-11-18T06:49:28.366Z,3.70
2022-11-18T06:51:55.158Z,3.50
2022-11-18T06:54:22.231Z,4.40
2022-11-18T06:56:48.760Z,3.07
2022-11-18T06:59:15.572Z,4.00
2022-11-18T07:01:42.358Z,4.10
2022-11-18T07:04:09.154Z,3.17
2022-11-18T07:06:36.945Z,4.37
2022-11-18T07:09:07.098Z,3.53
2022-11-18T07:11:34.224Z,3.63
2022-11-18T07:14:01.277Z,4.00
2022-11-18T07:16:28.072Z,3.17
2022-11-18T07:18:55.660Z,3.90
2022-11-18T07:21:25.368Z,4.37
2022-11-18T07:23:51.885Z,4.80
2022-11-18T07:26:19.803Z,4.70
2022-11-18T07:28:46.483Z,5.63
2022-11-18T07:31:15.591Z,4.90
2022-11-18T07:33:43.185Z,4.70
2022-11-18T07:36:12.251Z,4.40
2022-11-18T07:38:39.571Z,4.00
2022-11-18T07:41:11.496Z,3.83
2022-11-18T07:43:38.630Z,4.10
2022-11-18T07:46:15.656Z,4.50
2022-11-18T07:48:43.659Z,4.67
2022-11-18T07:51:10.657Z,4.13
2022-11-18T07:53:37.564Z,3.60
2022-11-18T07:56:05.385Z,5.50
2022-11-18T07:58:32.349Z,6.20
2022-11-18T08:00:59.379Z,10.37
2022-11-18T08:03:27.738Z,10.60
2022-11-18T08:05:58.920Z,9.67
2022-11-18T08:08:25.458Z,8.40
2022-11-18T08:10:51.964Z,8.90
2022-11-18T08:13:18.424Z,13.73
2022-11-18T08:15:45.166Z,10.27
2022-11-18T08:18:13.834Z,7.13
2022-11-18T08:20:40.629Z,6.20
2022-11-18T08:23:07.096Z,4.20
2022-11-18T08:25:33.610Z,4.63
2022-11-18T08:28:00.238Z,4.13
2022-11-18T08:30:26.723Z,4.50
2022-11-18T08:32:53.236Z,5.13
2022-11-18T08:35:19.662Z,4.33
2022-11-18T08:37:46.125Z,5.10
2022-11-18T08:40:12.866Z,4.40
2022-11-18T08:42:39.339Z,4.17
2022-11-18T08:45:08.499Z,4.40
2022-11-18T08:47:36.060Z,4.40
2022-11-18T08:50:04.606Z,4.40
2022-11-18T08:52:31.079Z,5.20
2022-11-18T08:54:57.568Z,4.60
2022-11-18T08:57:24.359Z,4.97
2022-11-18T08:59:50.915Z,4.57
2022-11-18T09:02:20.011Z,4.50
2022-11-18T09:04:47.792Z,4.67
2022-11-18T09:07:14.414Z,4.30
2022-11-18T09:09:40.962Z,4.20
2022-11-18T09:12:07.829Z,4.40
2022-11-18T09:17:20.627Z,4.17
2022-11-18T09:19:48.195Z,3.93
2022-11-18T09:22:14.974Z,3.80
2022-11-18T09:24:41.422Z,4.37
2022-11-18T09:27:13.671Z,4.00
2022-11-18T09:29:43.066Z,4.20
2022-11-18T09:32:09.614Z,4.27
2022-11-18T09:34:36.234Z,4.37
2022-11-18T09:37:06.949Z,4.37
2022-11-18T09:39:39.509Z,3.40
2022-11-18T09:42:43.866Z,3.47
2022-11-18T09:45:24.515Z,3.43
2022-11-18T09:47:55.914Z,4.37
2022-11-18T09:53:12.936Z,3.60
2022-11-18T09:55:41.713Z,2.87
2022-11-18T09:58:18.315Z,3.93
2022-11-18T10:00:46.115Z,3.83
2022-11-18T10:03:21.986Z,3.73
2022-11-18T10:05:55.836Z,2.73
2022-11-18T10:08:33.214Z,4.37
2022-11-18T10:11:14.285Z,3.67
2022-11-18T10:13:48.791Z,3.17
2022-11-18T10:16:36.441Z,2.70
2022-11-18T10:19:24.813Z,3.30
2022-11-18T10:22:19.471Z,3.80
2022-11-18T10:24:52.545Z,3.50
2022-11-18T10:27:19.529Z,2.80
2022-11-18T10:29:53.096Z,2.70
2022-11-18T10:32:20.065Z,3.40
2022-11-18T10:34:57.652Z,3.17
2022-11-18T10:37:52.935Z,2.77
2022-11-18T10:40:25.576Z,3.87
2022-11-18T10:42:52.086Z,2.70
2022-11-18T10:45:21.466Z,3.00
2022-11-18T10:48:09.136Z,2.80
2022-11-18T10:50:37.188Z,3.27
2022-11-18T10:53:05.786Z,2.30
2022-11-18T10:55:32.466Z,3.20
2022-11-18T10:58:10.981Z,2.87
2022-11-18T11:00:49.267Z,2.90
2022-11-18T11:03:23.571Z,2.93
2022-11-18T11:06:18.543Z,2.77
2022-11-18T11:08:50.689Z,3.30
2022-11-18T11:11:28.520Z,2.87
2022-11-18T11:14:02.095Z,2.70
2022-11-18T11:16:30.668Z,2.83
2022-11-18T11:19:00.656Z,2.77
2022-11-18T11:21:27.995Z,3.03
2022-11-18T11:23:54.789Z,3.23
2022-11-18T11:29:43.166Z,3.27
2022-11-18T11:32:26.889Z,2.50
2022-11-18T11:35:12.741Z,2.63
2022-11-18T11:37:58.924Z,2.73
2022-11-18T11:40:39.704Z,3.00
2022-11-18T11:43:21.332Z,2.87
2022-11-18T11:46:07.185Z,3.10
2022-11-18T11:48:51.875Z,2.40
2022-11-18T11:51:41.855Z,3.20
2022-11-18T11:54:11.329Z,3.07
2022-11-18T11:57:00.025Z,2.87
2022-11-18T11:59:42.788Z,3.07
2022-11-18T12:02:29.132Z,3.27
2022-11-18T12:05:00.316Z,3.00
2022-11-18T12:07:32.086Z,2.57
2022-11-18T12:10:20.747Z,2.50
2022-11-18T12:13:13.012Z,3.17
2022-11-18T12:15:43.023Z,3.20
2022-11-18T12:18:24.416Z,2.43
2022-11-18T12:20:53.669Z,2.83
2022-11-18T12:23:30.817Z,2.60
2022-11-18T12:26:05.380Z,2.27
2022-11-18T12:28:45.115Z,3.13
2022-11-18T12:31:17.802Z,2.70
2022-11-18T12:33:44.935Z,2.43
2022-11-18T12:36:28.410Z,2.77
2022-11-18T12:38:55.902Z,2.40
2022-11-18T12:41:59.624Z,2.50
2022-11-18T12:44:28.636Z,2.70
2022-11-18T12:46:59.309Z,3.17
2022-11-18T12:49:25.792Z,3.07
2022-11-18T12:51:53.549Z,2.57
2022-11-18T12:54:34.425Z,5.13
2022-11-18T12:57:04.320Z,3.03
2022-11-18T12:59:38.944Z,3.00
2022-11-18T13:02:18.312Z,2.77
2022-11-18T13:04:47.596Z,2.97
2022-11-18T13:07:37.352Z,2.47
2022-11-18T13:10:22.625Z,2.40
2022-11-18T13:12:49.306Z,2.10
2022-11-18T13:15:34.611Z,2.40
2022-11-18T13:18:12.727Z,2.70
2022-11-18T13:20:41.136Z,2.47
2022-11-18T13:23:29.077Z,2.60
2022-11-18T13:26:18.934Z,2.57
2022-11-18T13:29:13.561Z,2.53
2022-11-18T13:32:06.413Z,2.10
2022-11-18T13:34:45.442Z,2.60
2022-11-18T13:37:17.183Z,2.30
2022-11-18T13:39:44.538Z,2.90
2022-11-18T13:42:20.464Z,2.30
2022-11-18T13:45:01.581Z,2.50
2022-11-18T13:47:41.785Z,2.67
2022-11-18T13:50:11.269Z,1.83
2022-11-18T13:52:40.664Z,3.57
2022-11-18T13:55:15.288Z,2.70
2022-11-18T13:57:46.156Z,2.40
2022-11-18T14:00:22.332Z,3.10
2022-11-18T14:02:57.759Z,2.50
2022-11-18T14:05:24.980Z,2.30
2022-11-18T14:07:59.225Z,2.93
2022-11-18T14:10:43.614Z,2.90
2022-11-18T14:13:17.253Z,2.30
2022-11-18T14:15:44.308Z,2.70
2022-11-18T14:18:21.291Z,2.50
2022-11-18T14:20:53.017Z,2.40
2022-11-18T14:23:26.159Z,2.30
2022-11-18T14:25:52.925Z,3.00
2022-11-18T14:28:27.105Z,3.00
2022-11-18T14:30:59.903Z,3.40
2022-11-18T14:33:28.703Z,2.90
2022-11-18T14:36:21.733Z,3.10
2022-11-18T14:39:25.899Z,3.43
2022-11-18T14:41:48.187Z,3.07
2022-11-18T14:44:15.353Z,3.30
2022-11-18T14:46:46.375Z,3.67
2022-11-18T14:49:17.277Z,5.00
2022-11-18T14:51:44.931Z,4.30
2022-11-18T14:54:13.943Z,3.60
2022-11-18T14:56:41.151Z,3.17
2022-11-18T14:59:07.683Z,3.60
2022-11-18T15:01:34.288Z,2.83
2022-11-18T15:04:00.752Z,2.60
2022-11-18T15:06:28.478Z,2.50
2022-11-18T15:08:54.940Z,3.03
2022-11-18T15:11:21.458Z,3.10
2022-11-18T15:13:49.690Z,3.20
2022-11-18T15:16:22.173Z,2.73
2022-11-18T15:18:52.696Z,3.40
2022-11-18T15:21:19.828Z,4.37
2022-11-18T15:23:46.624Z,3.47
2022-11-18T15:26:23.013Z,3.40
2022-11-18T15:28:51.340Z,4.33
2022-11-18T15:31:18.778Z,3.67
2022-11-18T15:33:45.984Z,3.23
2022-11-18T15:36:14.557Z,4.13
2022-11-18T15:38:41.722Z,5.67
2022-11-18T15:41:25.261Z,5.30
2022-11-18T15:43:53.610Z,4.53
2022-11-18T15:46:21.921Z,4.40
2022-11-18T15:48:51.341Z,3.83
2022-11-18T15:51:18.072Z,4.07
2022-11-18T15:53:44.794Z,4.13
2022-11-18T15:56:20.445Z,4.33
2022-11-18T15:58:58.298Z,3.40
2022-11-18T16:01:26.791Z,3.73
2022-11-18T16:03:53.398Z,3.60
2022-11-18T16:06:19.944Z,3.23
2022-11-18T16:08:46.537Z,3.10
2022-11-18T16:11:33.740Z,4.90
2022-11-18T16:14:01.909Z,4.07
2022-11-18T16:16:30.121Z,7.07
2022-11-18T16:18:57.769Z,4.50
2022-11-18T16:21:24.904Z,4.67
2022-11-18T16:23:54.916Z,4.10
2022-11-18T16:26:21.478Z,5.13
2022-11-18T16:28:47.961Z,4.23
2022-11-18T16:31:43.894Z,4.13
2022-11-18T16:34:22.147Z,4.57
2022-11-18T16:36:54.213Z,6.30
2022-11-18T16:39:26.105Z,8.13
2022-11-18T16:41:54.464Z,7.90
2022-11-18T16:44:20.954Z,9.20
2022-11-18T16:46:52.298Z,9.60
2022-11-18T16:49:21.594Z,10.20
2022-11-18T16:51:50.485Z,10.20
2022-11-18T16:54:23.325Z,10.30
2022-11-18T16:56:51.270Z,8.33
2022-11-18T16:59:21.823Z,19.13
2022-11-18T17:01:52.556Z,11.80
2022-11-18T17:04:20.710Z,13.47
2022-11-18T17:06:47.272Z,10.70
2022-11-18T17:09:16.879Z,11.20
2022-11-18T17:11:43.705Z,8.20
2022-11-18T17:14:10.324Z,7.60
2022-11-18T17:16:37.283Z,5.47
2022-11-18T17:19:10.180Z,6.60
2022-11-18T17:21:38.364Z,6.57
2022-11-18T17:24:05.691Z,5.70
2022-11-18T17:26:32.395Z,6.80
2022-11-18T17:28:58.834Z,5.87
2022-11-18T17:31:25.953Z,5.90
2022-11-18T17:33:54.397Z,5.77
2022-11-18T17:36:23.440Z,7.93
2022-11-18T17:38:52.611Z,7.10
2022-11-18T17:41:41.200Z,4.37
2022-11-18T17:44:10.024Z,4.57
2022-11-18T17:46:38.554Z,4.10
2022-11-18T17:49:07.839Z,5.07
2022-11-18T17:51:34.362Z,5.20
2022-11-18T17:54:00.888Z,7.17
2022-11-18T17:56:27.388Z,10.77
2022-11-18T17:58:53.888Z,12.63
2022-11-18T18:01:21.593Z,13.80
2022-11-18T18:03:48.423Z,12.73
2022-11-18T18:06:15.397Z,6.00
2022-11-18T18:08:42.052Z,5.37
2022-11-18T18:11:14.752Z,5.10
2022-11-18T18:14:01.028Z,4.30
2022-11-18T18:16:29.612Z,5.00
2022-11-18T18:18:57.905Z,6.80
2022-11-18T18:21:24.581Z,4.97
2022-11-18T18:23:51.247Z,4.70
2022-11-18T18:26:17.672Z,5.40
2022-11-18T18:28:45.041Z,5.50
2022-11-18T18:31:14.097Z,5.30
2022-11-18T18:33:40.920Z,4.40
2022-11-18T18:36:10.831Z,4.30
2022-11-18T18:38:38.676Z,5.80
2022-11-18T18:41:07.849Z,5.40
2022-11-18T18:43:34.716Z,4.97
2022-11-18T18:46:30.357Z,6.20
2022-11-18T18:49:12.531Z,6.30
2022-11-18T18:51:48.812Z,6.23
2022-11-18T18:54:17.282Z,5.60
2022-11-18T18:56:44.198Z,5.50
2022-11-18T18:59:11.272Z,6.43
2022-11-18T19:01:38.575Z,6.40
2022-11-18T19:04:06.799Z,5.60
2022-11-18T19:09:25.709Z,6.37
2022-11-18T19:12:11.656Z,6.80
2022-11-18T19:14:38.200Z,7.03
2022-11-18T19:17:10.238Z,7.10
2022-11-18T19:19:57.108Z,6.20
2022-11-18T19:22:24.481Z,5.73
2022-11-18T19:24:51.325Z,6.47
2022-11-18T19:27:19.234Z,6.73
2022-11-18T19:29:45.759Z,6.70
2022-11-18T19:32:12.759Z,7.20
2022-11-18T19:34:39.305Z,6.73
2022-11-18T19:37:05.736Z,7.00
2022-11-18T19:39:32.365Z,6.03
2022-11-18T19:41:58.932Z,6.30
2022-11-18T19:44:25.487Z,5.80
2022-11-18T19:46:51.980Z,5.47
2022-11-18T19:49:18.899Z,5.50
2022-11-18T19:51:45.553Z,5.40
2022-11-18T19:54:11.933Z,6.30
2022-11-18T19:56:38.908Z,8.83
2022-11-18T19:59:05.507Z,5.73
2022-11-18T20:01:32.062Z,4.97
2022-11-18T20:04:05.523Z,5.80
2022-11-18T20:06:34.148Z,6.20
2022-11-18T20:09:00.569Z,6.30
2022-11-18T20:11:28.148Z,6.27
2022-11-18T20:13:54.690Z,5.90
2022-11-18T20:16:23.443Z,5.30
2022-11-18T20:18:59.537Z,6.00
2022-11-18T20:21:27.584Z,7.03
2022-11-18T20:23:59.783Z,6.53
2022-11-18T20:26:29.334Z,6.90
2022-11-18T20:28:57.629Z,5.57
2022-11-18T20:31:25.589Z,6.20
2022-11-18T20:33:55.033Z,7.43
2022-11-18T20:36:24.173Z,5.70
2022-11-18T20:38:53.341Z,6.30
2022-11-18T20:41:20.977Z,6.97
2022-11-18T20:43:48.125Z,6.73
2022-11-18T20:46:20.763Z,8.30
2022-11-18T20:48:49.144Z,8.80
2022-11-18T20:51:23.282Z,8.57
2022-11-18T20:53:51.101Z,9.90
2022-11-18T20:56:19.945Z,9.30
2022-11-18T20:58:46.509Z,8.30
2022-11-18T21:01:24.984Z,9.20
2022-11-18T21:03:54.444Z,9.30
2022-11-18T21:06:23.176Z,8.63
2022-11-18T21:08:55.139Z,7.90
2022-11-18T21:11:21.622Z,8.07
2022-11-18T21:14:06.749Z,7.50
2022-11-18T21:16:33.455Z,7.77
2022-11-18T21:18:59.933Z,8.27
2022-11-18T21:21:44.524Z,8.63
2022-11-18T21:24:23.079Z,8.90
2022-11-18T21:26:52.097Z,8.00
2022-11-18T21:29:20.252Z,8.30
2022-11-18T21:31:47.412Z,8.70
2022-11-18T21:34:15.554Z,9.20
2022-11-18T21:36:46.714Z,11.33
2022-11-18T21:39:15.979Z,10.37
2022-11-18T21:41:42.761Z,9.93
2022-11-18T21:44:11.393Z,11.37
2022-11-18T21:46:39.718Z,12.27
2022-11-18T21:49:06.749Z,12.77
2022-11-18T21:51:34.381Z,15.50
2022-11-18T21:54:01.559Z,14.23
2022-11-18T21:56:30.991Z,14.50
2022-11-18T21:59:00.152Z,13.27
2022-11-18T22:01:29.015Z,12.47
2022-11-18T22:03:57.659Z,12.73
2022-11-18T22:06:25.670Z,12.10
2022-11-18T22:08:52.589Z,13.10
2022-11-18T22:11:22.243Z,13.63
2022-11-18T22:13:50.873Z,13.63
2022-11-18T22:16:19.046Z,12.80
2022-11-18T22:18:50.320Z,19.00
2022-11-18T22:21:21.149Z,17.20
2022-11-18T22:23:48.279Z,15.77
2022-11-18T22:26:17.364Z,17.00
2022-11-18T22:28:44.329Z,19.60
2022-11-18T22:31:12.026Z,21.40
2022-11-18T22:33:38.806Z,18.67
2022-11-18T22:36:08.753Z,12.83
2022-11-18T22:38:35.470Z,12.63
2022-11-18T22:41:03.977Z,11.57
2022-11-18T22:43:32.377Z,11.63
2022-11-18T22:46:08.420Z,11.90
2022-11-18T22:48:35.472Z,11.67
2022-11-18T22:51:06.144Z,11.93
2022-11-18T22:53:33.629Z,11.30
2022-11-18T22:56:11.844Z,10.53
2022-11-18T22:58:38.790Z,9.57
2022-11-18T23:01:11.301Z,10.57
2022-11-18T23:03:37.763Z,9.40
2022-11-18T23:06:05.135Z,10.30
2022-11-18T23:08:34.219Z,9.40
2022-11-18T23:11:02.117Z,10.07
2022-11-18T23:13:47.152Z,9.30
2022-11-18T23:16:13.593Z,8.07
2022-11-18T23:18:40.145Z,8.90
2022-11-18T23:21:06.760Z,9.20
2022-11-18T23:23:33.202Z,8.73
2022-11-18T23:26:08.413Z,30.50
2022-11-18T23:28:36.045Z,18.10
2022-11-18T23:31:11.411Z,10.80
2022-11-18T23:33:38.899Z,8.80
2022-11-18T23:36:07.366Z,9.30
2022-11-18T23:38:34.617Z,10.60
2022-11-18T23:41:03.779Z,9.50
2022-11-18T23:43:31.389Z,9.37
2022-11-18T23:45:58.706Z,8.83
2022-11-18T23:48:26.874Z,9.40
2022-11-18T23:50:57.592Z,10.00
2022-11-18T23:53:25.081Z,10.07
2022-11-18T23:55:51.586Z,9.33
2022-11-18T23:58:18.495Z,10.33
